sensor_id;sensor_type;location;lat;lon;timestamp;P1;durP1;ratioP1;P2;durP2;ratioP2
62863;SDS011;48954;59.950;11.014;2024-03-07T00:01:57;10.10;;;4.50;;
62863;SDS011;48954;59.950;11.014;2024-03-07T00:04:32;8.00;;;3.70;;
62863;SDS011;48954;59.950;11.014;2024-03-07T00:07:00;6.50;;;2.70;;
62863;SDS011;48954;59.950;11.014;2024-03-07T00:09:27;6.60;;;2.90;;
62863;SDS011;48954;59.950;11.014;2024-03-07T00:11:54;7.60;;;4.00;;
62863;SDS011;48954;59.950;11.014;2024-03-07T00:14:20;9.60;;;4.00;;
62863;SDS011;48954;59.950;11.014;2024-03-07T00:16:56;11.30;;;4.50;;
62863;SDS011;48954;59.950;11.014;2024-03-07T00:19:23;7.10;;;3.10;;
62863;SDS011;48954;59.950;11.014;2024-03-07T00:21:53;6.40;;;2.60;;
62863;SDS011;48954;59.950;11.014;2024-03-07T00:24:21;3.80;;;1.70;;
62863;SDS011;48954;59.950;11.014;2024-03-07T00:26:49;7.90;;;4.10;;
62863;SDS011;48954;59.950;11.014;2024-03-07T00:29:18;7.90;;;3.10;;
62863;SDS011;48954;59.950;11.014;2024-03-07T00:31:46;5.60;;;2.30;;
62863;SDS011;48954;59.950;11.014;2024-03-07T00:34:13;7.20;;;3.20;;
62863;SDS011;48954;59.950;11.014;2024-03-07T00:36:41;6.00;;;2.30;;
62863;SDS011;48954;59.950;11.014;2024-03-07T00:39:07;7.30;;;3.70;;
62863;SDS011;48954;59.950;11.014;2024-03-07T00:41:34;4.60;;;2.00;;
62863;SDS011;48954;59.950;11.014;2024-03-07T00:44:00;4.90;;;2.40;;
62863;SDS011;48954;59.950;11.014;2024-03-07T00:46:28;4.10;;;2.10;;
62863;SDS011;48954;59.950;11.014;2024-03-07T00:48:56;7.60;;;2.80;;
62863;SDS011;48954;59.950;11.014;2024-03-07T00:51:24;7.90;;;2.80;;
62863;SDS011;48954;59.950;11.014;2024-03-07T00:53:51;2.90;;;1.20;;
62863;SDS011;48954;59.950;11.014;2024-03-07T00:56:18;6.30;;;2.80;;
62863;SDS011;48954;59.950;11.014;2024-03-07T00:58:48;6.00;;;2.80;;
62863;SDS011;48954;59.950;11.014;2024-03-07T01:01:16;7.70;;;2.50;;
62863;SDS011;48954;59.950;11.014;2024-03-07T01:03:43;8.80;;;3.20;;
62863;SDS011;48954;59.950;11.014;2024-03-07T01:06:11;4.90;;;2.70;;
62863;SDS011;48954;59.950;11.014;2024-03-07T01:08:40;5.70;;;2.20;;
62863;SDS011;48954;59.950;11.014;2024-03-07T01:11:06;7.00;;;3.30;;
62863;SDS011;48954;59.950;11.014;2024-03-07T01:13:34;6.10;;;3.20;;
62863;SDS011;48954;59.950;11.014;2024-03-07T01:16:08;10.30;;;4.70;;
62863;SDS011;48954;59.950;11.014;2024-03-07T01:18:39;6.40;;;3.00;;
62863;SDS011;48954;59.950;11.014;2024-03-07T01:21:06;12.70;;;4.20;;
62863;SDS011;48954;59.950;11.014;2024-03-07T01:23:33;11.40;;;3.20;;
62863;SDS011;48954;59.950;11.014;2024-03-07T01:26:00;8.80;;;3.60;;
62863;SDS011;48954;59.950;11.014;2024-03-07T01:28:28;5.80;;;2.60;;
62863;SDS011;48954;59.950;11.014;2024-03-07T01:30:55;7.20;;;3.20;;
62863;SDS011;48954;59.950;11.014;2024-03-07T01:33:22;6.90;;;2.60;;
62863;SDS011;48954;59.950;11.014;2024-03-07T01:35:49;7.40;;;3.10;;
62863;SDS011;48954;59.950;11.014;2024-03-07T01:38:18;8.70;;;3.60;;
62863;SDS011;48954;59.950;11.014;2024-03-07T01:40:47;7.20;;;2.80;;
62863;SDS011;48954;59.950;11.014;2024-03-07T01:43:16;5.40;;;2.70;;
62863;SDS011;48954;59.950;11.014;2024-03-07T01:45:43;8.10;;;3.20;;
62863;SDS011;48954;59.950;11.014;2024-03-07T01:48:10;7.60;;;3.30;;
62863;SDS011;48954;59.950;11.014;2024-03-07T01:50:40;8.80;;;3.50;;
62863;SDS011;48954;59.950;11.014;2024-03-07T01:53:06;9.00;;;3.70;;
62863;SDS011;48954;59.950;11.014;2024-03-07T01:55:38;6.60;;;3.00;;
62863;SDS011;48954;59.950;11.014;2024-03-07T01:58:04;4.50;;;2.10;;
62863;SDS011;48954;59.950;11.014;2024-03-07T02:00:31;6.80;;;2.30;;
62863;SDS011;48954;59.950;11.014;2024-03-07T02:02:59;7.60;;;2.90;;
62863;SDS011;48954;59.950;11.014;2024-03-07T02:05:25;5.90;;;2.60;;
62863;SDS011;48954;59.950;11.014;2024-03-07T02:07:52;5.50;;;2.30;;
62863;SDS011;48954;59.950;11.014;2024-03-07T02:10:20;4.10;;;1.90;;
62863;SDS011;48954;59.950;11.014;2024-03-07T02:12:47;2.70;;;1.30;;
62863;SDS011;48954;59.950;11.014;2024-03-07T02:15:14;3.40;;;1.70;;
62863;SDS011;48954;59.950;11.014;2024-03-07T02:17:40;4.30;;;2.10;;
62863;SDS011;48954;59.950;11.014;2024-03-07T02:20:06;5.50;;;2.70;;
62863;SDS011;48954;59.950;11.014;2024-03-07T02:22:34;3.50;;;1.50;;
62863;SDS011;48954;59.950;11.014;2024-03-07T02:25:00;5.70;;;1.80;;
62863;SDS011;48954;59.950;11.014;2024-03-07T02:27:27;5.90;;;2.90;;
62863;SDS011;48954;59.950;11.014;2024-03-07T02:29:53;5.60;;;2.60;;
62863;SDS011;48954;59.950;11.014;2024-03-07T02:32:20;4.90;;;1.80;;
62863;SDS011;48954;59.950;11.014;2024-03-07T02:34:47;7.50;;;3.10;;
62863;SDS011;48954;59.950;11.014;2024-03-07T02:37:14;4.60;;;2.00;;
62863;SDS011;48954;59.950;11.014;2024-03-07T02:39:41;5.60;;;2.50;;
62863;SDS011;48954;59.950;11.014;2024-03-07T02:42:09;4.10;;;2.00;;
62863;SDS011;48954;59.950;11.014;2024-03-07T02:44:35;5.30;;;2.00;;
62863;SDS011;48954;59.950;11.014;2024-03-07T02:47:01;4.80;;;1.70;;
62863;SDS011;48954;59.950;11.014;2024-03-07T02:49:27;4.20;;;1.70;;
62863;SDS011;48954;59.950;11.014;2024-03-07T02:51:53;5.80;;;1.30;;
62863;SDS011;48954;59.950;11.014;2024-03-07T02:54:19;4.50;;;1.70;;
62863;SDS011;48954;59.950;11.014;2024-03-07T02:56:46;4.20;;;1.50;;
62863;SDS011;48954;59.950;11.014;2024-03-07T02:59:12;4.50;;;1.70;;
62863;SDS011;48954;59.950;11.014;2024-03-07T03:01:38;4.50;;;1.80;;
62863;SDS011;48954;59.950;11.014;2024-03-07T03:04:05;4.90;;;2.20;;
62863;SDS011;48954;59.950;11.014;2024-03-07T03:06:32;6.00;;;2.40;;
62863;SDS011;48954;59.950;11.014;2024-03-07T03:08:58;4.40;;;2.00;;
62863;SDS011;48954;59.950;11.014;2024-03-07T03:11:27;3.60;;;1.40;;
62863;SDS011;48954;59.950;11.014;2024-03-07T03:13:53;5.70;;;2.30;;
62863;SDS011;48954;59.950;11.014;2024-03-07T03:16:19;5.50;;;2.20;;
62863;SDS011;48954;59.950;11.014;2024-03-07T03:18:46;4.60;;;2.10;;
62863;SDS011;48954;59.950;11.014;2024-03-07T03:21:13;4.40;;;1.80;;
62863;SDS011;48954;59.950;11.014;2024-03-07T03:23:39;11.70;;;3.40;;
62863;SDS011;48954;59.950;11.014;2024-03-07T03:26:05;4.10;;;1.70;;
62863;SDS011;48954;59.950;11.014;2024-03-07T03:28:31;3.50;;;1.70;;
62863;SDS011;48954;59.950;11.014;2024-03-07T03:30:58;5.00;;;1.80;;
62863;SDS011;48954;59.950;11.014;2024-03-07T03:33:26;5.00;;;1.90;;
62863;SDS011;48954;59.950;11.014;2024-03-07T03:35:52;3.00;;;1.40;;
62863;SDS011;48954;59.950;11.014;2024-03-07T03:38:18;4.00;;;1.60;;
62863;SDS011;48954;59.950;11.014;2024-03-07T03:40:44;4.70;;;2.00;;
62863;SDS011;48954;59.950;11.014;2024-03-07T03:43:10;5.50;;;2.20;;
62863;SDS011;48954;59.950;11.014;2024-03-07T03:45:36;4.10;;;1.70;;
62863;SDS011;48954;59.950;11.014;2024-03-07T03:48:02;4.50;;;1.70;;
62863;SDS011;48954;59.950;11.014;2024-03-07T03:50:31;5.00;;;1.70;;
62863;SDS011;48954;59.950;11.014;2024-03-07T03:52:58;3.50;;;1.80;;
62863;SDS011;48954;59.950;11.014;2024-03-07T03:55:24;4.20;;;1.80;;
62863;SDS011;48954;59.950;11.014;2024-03-07T03:57:50;3.70;;;1.60;;
62863;SDS011;48954;59.950;11.014;2024-03-07T04:00:16;3.90;;;1.50;;
62863;SDS011;48954;59.950;11.014;2024-03-07T04:02:46;4.30;;;1.70;;
62863;SDS011;48954;59.950;11.014;2024-03-07T04:05:19;5.70;;;2.20;;
62863;SDS011;48954;59.950;11.014;2024-03-07T04:07:45;2.50;;;1.20;;
62863;SDS011;48954;59.950;11.014;2024-03-07T04:10:12;4.00;;;1.60;;
62863;SDS011;48954;59.950;11.014;2024-03-07T04:12:43;5.10;;;2.20;;
62863;SDS011;48954;59.950;11.014;2024-03-07T04:15:10;4.00;;;1.70;;
62863;SDS011;48954;59.950;11.014;2024-03-07T04:17:39;3.70;;;1.90;;
62863;SDS011;48954;59.950;11.014;2024-03-07T04:20:05;4.20;;;1.90;;
62863;SDS011;48954;59.950;11.014;2024-03-07T04:22:35;3.60;;;1.40;;
62863;SDS011;48954;59.950;11.014;2024-03-07T04:25:05;9.60;;;1.90;;
62863;SDS011;48954;59.950;11.014;2024-03-07T04:27:33;3.70;;;1.60;;
62863;SDS011;48954;59.950;11.014;2024-03-07T04:29:59;3.50;;;1.60;;
62863;SDS011;48954;59.950;11.014;2024-03-07T04:32:25;5.30;;;1.50;;
62863;SDS011;48954;59.950;11.014;2024-03-07T04:34:51;4.70;;;1.60;;
62863;SDS011;48954;59.950;11.014;2024-03-07T04:37:17;4.80;;;1.60;;
62863;SDS011;48954;59.950;11.014;2024-03-07T04:39:44;3.50;;;1.70;;
62863;SDS011;48954;59.950;11.014;2024-03-07T04:42:10;2.70;;;1.50;;
62863;SDS011;48954;59.950;11.014;2024-03-07T04:44:36;3.10;;;1.70;;
62863;SDS011;48954;59.950;11.014;2024-03-07T04:47:03;4.40;;;2.00;;
62863;SDS011;48954;59.950;11.014;2024-03-07T04:49:30;4.50;;;1.90;;
62863;SDS011;48954;59.950;11.014;2024-03-07T04:51:57;3.80;;;1.60;;
62863;SDS011;48954;59.950;11.014;2024-03-07T04:54:25;4.00;;;2.00;;
62863;SDS011;48954;59.950;11.014;2024-03-07T04:56:52;5.10;;;2.00;;
62863;SDS011;48954;59.950;11.014;2024-03-07T04:59:19;3.30;;;1.70;;
62863;SDS011;48954;59.950;11.014;2024-03-07T05:01:46;7.10;;;2.30;;
62863;SDS011;48954;59.950;11.014;2024-03-07T05:04:30;5.40;;;2.30;;
62863;SDS011;48954;59.950;11.014;2024-03-07T05:06:58;5.80;;;2.30;;
62863;SDS011;48954;59.950;11.014;2024-03-07T05:09:25;8.00;;;3.30;;
62863;SDS011;48954;59.950;11.014;2024-03-07T05:11:51;6.40;;;2.40;;
62863;SDS011;48954;59.950;11.014;2024-03-07T05:14:17;8.30;;;3.10;;
62863;SDS011;48954;59.950;11.014;2024-03-07T05:16:43;3.90;;;1.90;;
62863;SDS011;48954;59.950;11.014;2024-03-07T05:19:09;5.10;;;2.10;;
62863;SDS011;48954;59.950;11.014;2024-03-07T05:21:36;5.40;;;2.40;;
62863;SDS011;48954;59.950;11.014;2024-03-07T05:24:02;4.40;;;2.00;;
62863;SDS011;48954;59.950;11.014;2024-03-07T05:26:31;6.60;;;2.50;;
62863;SDS011;48954;59.950;11.014;2024-03-07T05:29:03;7.30;;;2.90;;
62863;SDS011;48954;59.950;11.014;2024-03-07T05:31:29;8.10;;;2.90;;
62863;SDS011;48954;59.950;11.014;2024-03-07T05:33:56;9.60;;;3.20;;
62863;SDS011;48954;59.950;11.014;2024-03-07T05:36:22;8.20;;;3.30;;
62863;SDS011;48954;59.950;11.014;2024-03-07T05:38:50;5.40;;;2.40;;
62863;SDS011;48954;59.950;11.014;2024-03-07T05:41:17;6.10;;;2.90;;
62863;SDS011;48954;59.950;11.014;2024-03-07T05:43:43;7.60;;;3.00;;
62863;SDS011;48954;59.950;11.014;2024-03-07T05:46:09;8.70;;;4.00;;
62863;SDS011;48954;59.950;11.014;2024-03-07T05:48:35;7.80;;;3.30;;
62863;SDS011;48954;59.950;11.014;2024-03-07T05:51:01;6.30;;;2.50;;
62863;SDS011;48954;59.950;11.014;2024-03-07T05:53:29;9.30;;;3.30;;
62863;SDS011;48954;59.950;11.014;2024-03-07T05:55:54;6.70;;;2.80;;
62863;SDS011;48954;59.950;11.014;2024-03-07T05:58:21;5.80;;;3.00;;
62863;SDS011;48954;59.950;11.014;2024-03-07T06:00:47;6.30;;;2.60;;
62863;SDS011;48954;59.950;11.014;2024-03-07T06:03:13;7.00;;;2.70;;
62863;SDS011;48954;59.950;11.014;2024-03-07T06:05:39;6.90;;;2.50;;
62863;SDS011;48954;59.950;11.014;2024-03-07T06:08:06;5.00;;;2.10;;
62863;SDS011;48954;59.950;11.014;2024-03-07T06:10:34;4.80;;;2.30;;
62863;SDS011;48954;59.950;11.014;2024-03-07T06:13:05;7.70;;;2.90;;
62863;SDS011;48954;59.950;11.014;2024-03-07T06:15:32;9.90;;;3.80;;
62863;SDS011;48954;59.950;11.014;2024-03-07T06:17:58;8.90;;;2.60;;
62863;SDS011;48954;59.950;11.014;2024-03-07T06:20:24;12.20;;;4.90;;
62863;SDS011;48954;59.950;11.014;2024-03-07T06:22:51;5.80;;;2.80;;
62863;SDS011;48954;59.950;11.014;2024-03-07T06:25:19;8.70;;;2.70;;
62863;SDS011;48954;59.950;11.014;2024-03-07T06:27:46;9.60;;;2.50;;
62863;SDS011;48954;59.950;11.014;2024-03-07T06:30:13;8.50;;;2.40;;
62863;SDS011;48954;59.950;11.014;2024-03-07T06:32:43;7.10;;;2.10;;
62863;SDS011;48954;59.950;11.014;2024-03-07T06:35:10;7.70;;;2.50;;
62863;SDS011;48954;59.950;11.014;2024-03-07T06:37:36;8.60;;;2.50;;
62863;SDS011;48954;59.950;11.014;2024-03-07T06:40:02;5.70;;;1.70;;
62863;SDS011;48954;59.950;11.014;2024-03-07T06:42:30;5.20;;;1.90;;
62863;SDS011;48954;59.950;11.014;2024-03-07T06:44:57;3.40;;;1.60;;
62863;SDS011;48954;59.950;11.014;2024-03-07T06:47:25;9.70;;;2.30;;
62863;SDS011;48954;59.950;11.014;2024-03-07T06:49:51;6.50;;;2.50;;
62863;SDS011;48954;59.950;11.014;2024-03-07T06:52:18;7.60;;;2.80;;
62863;SDS011;48954;59.950;11.014;2024-03-07T06:54:44;5.90;;;2.00;;
62863;SDS011;48954;59.950;11.014;2024-03-07T06:57:09;7.70;;;3.20;;
62863;SDS011;48954;59.950;11.014;2024-03-07T06:59:35;8.40;;;3.10;;
62863;SDS011;48954;59.950;11.014;2024-03-07T07:02:02;5.80;;;2.20;;
62863;SDS011;48954;59.950;11.014;2024-03-07T07:04:28;6.60;;;2.40;;
62863;SDS011;48954;59.950;11.014;2024-03-07T07:06:54;7.50;;;2.70;;
62863;SDS011;48954;59.950;11.014;2024-03-07T07:09:20;5.60;;;2.60;;
62863;SDS011;48954;59.950;11.014;2024-03-07T07:11:45;9.80;;;3.20;;
62863;SDS011;48954;59.950;11.014;2024-03-07T07:14:13;4.80;;;2.40;;
62863;SDS011;48954;59.950;11.014;2024-03-07T07:16:39;4.70;;;2.20;;
62863;SDS011;48954;59.950;11.014;2024-03-07T07:19:05;11.20;;;2.80;;
62863;SDS011;48954;59.950;11.014;2024-03-07T07:21:30;9.80;;;3.10;;
62863;SDS011;48954;59.950;11.014;2024-03-07T07:23:56;12.40;;;3.40;;
62863;SDS011;48954;59.950;11.014;2024-03-07T07:26:24;14.20;;;2.70;;
62863;SDS011;48954;59.950;11.014;2024-03-07T07:28:51;9.80;;;3.20;;
62863;SDS011;48954;59.950;11.014;2024-03-07T07:31:16;8.40;;;2.50;;
62863;SDS011;48954;59.950;11.014;2024-03-07T07:33:42;14.30;;;3.50;;
62863;SDS011;48954;59.950;11.014;2024-03-07T07:36:08;9.70;;;3.40;;
62863;SDS011;48954;59.950;11.014;2024-03-07T07:38:34;6.20;;;2.70;;
62863;SDS011;48954;59.950;11.014;2024-03-07T07:41:00;10.50;;;3.40;;
62863;SDS011;48954;59.950;11.014;2024-03-07T07:43:26;11.80;;;3.50;;
62863;SDS011;48954;59.950;11.014;2024-03-07T07:45:52;8.00;;;3.10;;
62863;SDS011;48954;59.950;11.014;2024-03-07T07:48:18;9.40;;;3.60;;
62863;SDS011;48954;59.950;11.014;2024-03-07T07:50:44;12.30;;;4.70;;
62863;SDS011;48954;59.950;11.014;2024-03-07T07:53:10;10.50;;;4.50;;
62863;SDS011;48954;59.950;11.014;2024-03-07T07:55:38;12.30;;;5.00;;
62863;SDS011;48954;59.950;11.014;2024-03-07T07:58:04;9.40;;;3.80;;
62863;SDS011;48954;59.950;11.014;2024-03-07T08:00:30;9.60;;;4.00;;
62863;SDS011;48954;59.950;11.014;2024-03-07T08:03:00;10.40;;;4.20;;
62863;SDS011;48954;59.950;11.014;2024-03-07T08:05:34;10.00;;;3.50;;
62863;SDS011;48954;59.950;11.014;2024-03-07T08:08:02;7.10;;;3.10;;
62863;SDS011;48954;59.950;11.014;2024-03-07T08:10:34;6.40;;;3.60;;
62863;SDS011;48954;59.950;11.014;2024-03-07T08:13:03;11.50;;;4.00;;
62863;SDS011;48954;59.950;11.014;2024-03-07T08:15:32;7.70;;;3.20;;
62863;SDS011;48954;59.950;11.014;2024-03-07T08:17:59;9.60;;;3.80;;
62863;SDS011;48954;59.950;11.014;2024-03-07T08:20:38;8.20;;;3.50;;
62863;SDS011;48954;59.950;11.014;2024-03-07T08:23:04;6.10;;;3.00;;
62863;SDS011;48954;59.950;11.014;2024-03-07T08:25:36;5.80;;;3.40;;
62863;SDS011;48954;59.950;11.014;2024-03-07T08:28:06;11.20;;;3.00;;
62863;SDS011;48954;59.950;11.014;2024-03-07T08:30:34;8.30;;;3.40;;
62863;SDS011;48954;59.950;11.014;2024-03-07T08:33:00;7.60;;;2.90;;
62863;SDS011;48954;59.950;11.014;2024-03-07T08:35:28;10.50;;;2.60;;
62863;SDS011;48954;59.950;11.014;2024-03-07T08:37:56;10.30;;;2.80;;
62863;SDS011;48954;59.950;11.014;2024-03-07T08:43:05;12.30;;;3.20;;
62863;SDS011;48954;59.950;11.014;2024-03-07T08:45:35;7.60;;;3.80;;
62863;SDS011;48954;59.950;11.014;2024-03-07T08:48:11;9.20;;;3.30;;
62863;SDS011;48954;59.950;11.014;2024-03-07T08:50:53;6.40;;;3.40;;
62863;SDS011;48954;59.950;11.014;2024-03-07T08:53:33;8.70;;;3.90;;
62863;SDS011;48954;59.950;11.014;2024-03-07T08:56:24;17.30;;;3.60;;
62863;SDS011;48954;59.950;11.014;2024-03-07T08:59:04;10.10;;;3.70;;
62863;SDS011;48954;59.950;11.014;2024-03-07T09:01:48;8.50;;;3.70;;
62863;SDS011;48954;59.950;11.014;2024-03-07T09:04:33;18.50;;;4.80;;
62863;SDS011;48954;59.950;11.014;2024-03-07T09:10:26;11.10;;;4.00;;
62863;SDS011;48954;59.950;11.014;2024-03-07T09:13:10;9.10;;;3.20;;
62863;SDS011;48954;59.950;11.014;2024-03-07T09:16:17;10.20;;;3.40;;
62863;SDS011;48954;59.950;11.014;2024-03-07T09:19:15;5.90;;;3.40;;
62863;SDS011;48954;59.950;11.014;2024-03-07T09:22:25;8.00;;;3.20;;
62863;SDS011;48954;59.950;11.014;2024-03-07T09:34:41;9.70;;;3.70;;
62863;SDS011;48954;59.950;11.014;2024-03-07T09:37:24;7.00;;;3.60;;
62863;SDS011;48954;59.950;11.014;2024-03-07T09:40:18;7.50;;;3.30;;
62863;SDS011;48954;59.950;11.014;2024-03-07T09:43:07;10.00;;;4.30;;
62863;SDS011;48954;59.950;11.014;2024-03-07T09:45:52;8.10;;;3.90;;
62863;SDS011;48954;59.950;11.014;2024-03-07T09:48:33;10.70;;;4.30;;
62863;SDS011;48954;59.950;11.014;2024-03-07T09:51:21;8.70;;;3.80;;
62863;SDS011;48954;59.950;11.014;2024-03-07T09:54:48;7.20;;;4.20;;
62863;SDS011;48954;59.950;11.014;2024-03-07T09:57:52;8.30;;;3.90;;
62863;SDS011;48954;59.950;11.014;2024-03-07T10:00:31;8.90;;;4.20;;
62863;SDS011;48954;59.950;11.014;2024-03-07T10:03:13;6.50;;;3.70;;
62863;SDS011;48954;59.950;11.014;2024-03-07T10:06:00;15.70;;;4.20;;
62863;SDS011;48954;59.950;11.014;2024-03-07T10:08:42;9.80;;;4.20;;
62863;SDS011;48954;59.950;11.014;2024-03-07T10:11:13;14.60;;;4.30;;
62863;SDS011;48954;59.950;11.014;2024-03-07T10:13:43;9.50;;;3.80;;
62863;SDS011;48954;59.950;11.014;2024-03-07T10:16:10;13.90;;;4.60;;
62863;SDS011;48954;59.950;11.014;2024-03-07T10:18:41;9.90;;;3.60;;
62863;SDS011;48954;59.950;11.014;2024-03-07T10:21:23;7.30;;;3.80;;
62863;SDS011;48954;59.950;11.014;2024-03-07T10:24:14;10.50;;;4.20;;
62863;SDS011;48954;59.950;11.014;2024-03-07T10:26:40;9.60;;;3.80;;
62863;SDS011;48954;59.950;11.014;2024-03-07T10:29:11;9.50;;;4.00;;
62863;SDS011;48954;59.950;11.014;2024-03-07T10:31:39;6.10;;;3.80;;
62863;SDS011;48954;59.950;11.014;2024-03-07T10:34:07;12.00;;;3.90;;
62863;SDS011;48954;59.950;11.014;2024-03-07T10:36:38;8.10;;;3.50;;
62863;SDS011;48954;59.950;11.014;2024-03-07T10:39:06;7.00;;;3.60;;
62863;SDS011;48954;59.950;11.014;2024-03-07T10:41:33;5.80;;;3.90;;
62863;SDS011;48954;59.950;11.014;2024-03-07T10:44:03;8.80;;;3.90;;
62863;SDS011;48954;59.950;11.014;2024-03-07T10:46:33;8.10;;;3.90;;
62863;SDS011;48954;59.950;11.014;2024-03-07T10:49:00;11.00;;;3.80;;
62863;SDS011;48954;59.950;11.014;2024-03-07T10:51:33;7.40;;;4.20;;
62863;SDS011;48954;59.950;11.014;2024-03-07T10:54:12;5.30;;;3.30;;
62863;SDS011;48954;59.950;11.014;2024-03-07T10:59:31;11.30;;;3.80;;
62863;SDS011;48954;59.950;11.014;2024-03-07T11:02:15;7.70;;;3.40;;
62863;SDS011;48954;59.950;11.014;2024-03-07T11:05:04;10.10;;;4.30;;
62863;SDS011;48954;59.950;11.014;2024-03-07T11:07:37;7.30;;;3.40;;
62863;SDS011;48954;59.950;11.014;2024-03-07T11:10:08;7.50;;;3.20;;
62863;SDS011;48954;59.950;11.014;2024-03-07T11:12:36;6.30;;;3.00;;
62863;SDS011;48954;59.950;11.014;2024-03-07T11:15:07;9.50;;;3.40;;
62863;SDS011;48954;59.950;11.014;2024-03-07T11:17:36;10.20;;;3.50;;
62863;SDS011;48954;59.950;11.014;2024-03-07T11:20:20;9.30;;;3.60;;
62863;SDS011;48954;59.950;11.014;2024-03-07T11:22:49;8.80;;;3.40;;
62863;SDS011;48954;59.950;11.014;2024-03-07T11:25:19;9.90;;;3.30;;
62863;SDS011;48954;59.950;11.014;2024-03-07T11:27:56;7.80;;;3.50;;
62863;SDS011;48954;59.950;11.014;2024-03-07T11:30:40;6.70;;;3.20;;
62863;SDS011;48954;59.950;11.014;2024-03-07T11:33:21;6.50;;;3.60;;
62863;SDS011;48954;59.950;11.014;2024-03-07T11:35:49;6.10;;;3.70;;
62863;SDS011;48954;59.950;11.014;2024-03-07T11:38:33;4.90;;;3.00;;
62863;SDS011;48954;59.950;11.014;2024-03-07T11:41:01;7.30;;;3.00;;
62863;SDS011;48954;59.950;11.014;2024-03-07T11:43:35;6.40;;;3.10;;
62863;SDS011;48954;59.950;11.014;2024-03-07T11:46:16;13.60;;;3.10;;
62863;SDS011;48954;59.950;11.014;2024-03-07T11:48:43;9.80;;;3.90;;
62863;SDS011;48954;59.950;11.014;2024-03-07T11:51:13;6.50;;;3.30;;
62863;SDS011;48954;59.950;11.014;2024-03-07T11:53:54;6.90;;;3.50;;
62863;SDS011;48954;59.950;11.014;2024-03-07T11:56:22;6.20;;;3.20;;
62863;SDS011;48954;59.950;11.014;2024-03-07T11:58:49;6.60;;;3.30;;
62863;SDS011;48954;59.950;11.014;2024-03-07T12:01:22;10.90;;;3.50;;
62863;SDS011;48954;59.950;11.014;2024-03-07T12:03:50;8.10;;;3.30;;
62863;SDS011;48954;59.950;11.014;2024-03-07T12:06:22;7.70;;;3.20;;
62863;SDS011;48954;59.950;11.014;2024-03-07T12:09:04;11.00;;;3.90;;
62863;SDS011;48954;59.950;11.014;2024-03-07T12:11:38;7.70;;;3.50;;
62863;SDS011;48954;59.950;11.014;2024-03-07T12:14:29;8.30;;;3.20;;
62863;SDS011;48954;59.950;11.014;2024-03-07T12:17:03;8.60;;;3.80;;
62863;SDS011;48954;59.950;11.014;2024-03-07T12:19:43;6.90;;;3.10;;
62863;SDS011;48954;59.950;11.014;2024-03-07T12:22:24;11.60;;;3.50;;
62863;SDS011;48954;59.950;11.014;2024-03-07T12:24:59;6.10;;;3.10;;
62863;SDS011;48954;59.950;11.014;2024-03-07T12:27:42;17.50;;;3.80;;
62863;SDS011;48954;59.950;11.014;2024-03-07T12:30:15;6.10;;;2.80;;
62863;SDS011;48954;59.950;11.014;2024-03-07T12:32:57;7.60;;;3.20;;
62863;SDS011;48954;59.950;11.014;2024-03-07T12:35:24;7.20;;;3.20;;
62863;SDS011;48954;59.950;11.014;2024-03-07T12:38:06;8.70;;;3.30;;
62863;SDS011;48954;59.950;11.014;2024-03-07T12:40:35;5.10;;;2.90;;
62863;SDS011;48954;59.950;11.014;2024-03-07T12:43:12;6.70;;;3.20;;
62863;SDS011;48954;59.950;11.014;2024-03-07T12:45:44;6.30;;;2.70;;
62863;SDS011;48954;59.950;11.014;2024-03-07T12:48:25;7.90;;;2.80;;
62863;SDS011;48954;59.950;11.014;2024-03-07T12:50:52;13.90;;;3.00;;
62863;SDS011;48954;59.950;11.014;2024-03-07T12:53:33;7.20;;;2.90;;
62863;SDS011;48954;59.950;11.014;2024-03-07T12:56:01;8.30;;;2.80;;
62863;SDS011;48954;59.950;11.014;2024-03-07T12:58:44;6.60;;;2.40;;
62863;SDS011;48954;59.950;11.014;2024-03-07T13:01:24;6.50;;;2.30;;
62863;SDS011;48954;59.950;11.014;2024-03-07T13:03:51;8.70;;;2.70;;
62863;SDS011;48954;59.950;11.014;2024-03-07T13:06:18;5.70;;;3.30;;
62863;SDS011;48954;59.950;11.014;2024-03-07T13:08:45;6.40;;;2.80;;
62863;SDS011;48954;59.950;11.014;2024-03-07T13:11:14;10.70;;;3.30;;
62863;SDS011;48954;59.950;11.014;2024-03-07T13:13:58;5.20;;;2.30;;
62863;SDS011;48954;59.950;11.014;2024-03-07T13:16:25;7.20;;;3.00;;
62863;SDS011;48954;59.950;11.014;2024-03-07T13:18:53;5.90;;;2.80;;
62863;SDS011;48954;59.950;11.014;2024-03-07T13:21:26;69.80;;;7.20;;
62863;SDS011;48954;59.950;11.014;2024-03-07T13:23:53;7.70;;;2.90;;
62863;SDS011;48954;59.950;11.014;2024-03-07T13:26:21;6.30;;;2.70;;
62863;SDS011;48954;59.950;11.014;2024-03-07T13:28:49;8.10;;;3.00;;
62863;SDS011;48954;59.950;11.014;2024-03-07T13:31:16;8.10;;;3.20;;
62863;SDS011;48954;59.950;11.014;2024-03-07T13:33:45;13.90;;;2.60;;
62863;SDS011;48954;59.950;11.014;2024-03-07T13:36:13;7.70;;;2.20;;
62863;SDS011;48954;59.950;11.014;2024-03-07T13:38:40;6.60;;;3.00;;
62863;SDS011;48954;59.950;11.014;2024-03-07T13:41:10;7.10;;;2.50;;
62863;SDS011;48954;59.950;11.014;2024-03-07T13:43:43;11.10;;;3.20;;
62863;SDS011;48954;59.950;11.014;2024-03-07T13:46:16;8.30;;;3.50;;
62863;SDS011;48954;59.950;11.014;2024-03-07T13:48:46;7.10;;;2.90;;
62863;SDS011;48954;59.950;11.014;2024-03-07T13:51:15;8.60;;;2.90;;
62863;SDS011;48954;59.950;11.014;2024-03-07T13:53:41;5.70;;;2.50;;
62863;SDS011;48954;59.950;11.014;2024-03-07T13:58:46;8.70;;;3.00;;
62863;SDS011;48954;59.950;11.014;2024-03-07T14:27:35;6.40;;;2.70;;
62863;SDS011;48954;59.950;11.014;2024-03-07T14:32:50;6.00;;;2.50;;
62863;SDS011;48954;59.950;11.014;2024-03-07T14:35:23;8.30;;;2.90;;
62863;SDS011;48954;59.950;11.014;2024-03-07T14:37:54;13.50;;;2.90;;
62863;SDS011;48954;59.950;11.014;2024-03-07T14:40:31;30.00;;;3.60;;
62863;SDS011;48954;59.950;11.014;2024-03-07T14:43:03;9.50;;;3.00;;
62863;SDS011;48954;59.950;11.014;2024-03-07T14:45:36;5.40;;;2.70;;
62863;SDS011;48954;59.950;11.014;2024-03-07T14:48:07;11.20;;;3.50;;
62863;SDS011;48954;59.950;11.014;2024-03-07T14:50:37;9.20;;;3.20;;
62863;SDS011;48954;59.950;11.014;2024-03-07T14:53:06;5.40;;;3.00;;
62863;SDS011;48954;59.950;11.014;2024-03-07T14:55:33;7.80;;;3.20;;
62863;SDS011;48954;59.950;11.014;2024-03-07T14:58:02;14.40;;;3.60;;
62863;SDS011;48954;59.950;11.014;2024-03-07T15:00:30;12.10;;;3.20;;
62863;SDS011;48954;59.950;11.014;2024-03-07T15:02:56;9.10;;;3.30;;
62863;SDS011;48954;59.950;11.014;2024-03-07T15:05:23;9.40;;;3.20;;
62863;SDS011;48954;59.950;11.014;2024-03-07T15:07:53;15.20;;;3.40;;
62863;SDS011;48954;59.950;11.014;2024-03-07T15:10:27;13.90;;;3.60;;
62863;SDS011;48954;59.950;11.014;2024-03-07T15:12:58;12.40;;;3.40;;
62863;SDS011;48954;59.950;11.014;2024-03-07T15:15:24;10.90;;;3.10;;
62863;SDS011;48954;59.950;11.014;2024-03-07T15:17:52;11.60;;;3.00;;
62863;SDS011;48954;59.950;11.014;2024-03-07T15:20:18;17.10;;;3.60;;
62863;SDS011;48954;59.950;11.014;2024-03-07T15:22:45;11.30;;;2.90;;
62863;SDS011;48954;59.950;11.014;2024-03-07T15:25:11;8.40;;;3.20;;
62863;SDS011;48954;59.950;11.014;2024-03-07T15:27:41;8.20;;;3.20;;
62863;SDS011;48954;59.950;11.014;2024-03-07T15:30:08;8.40;;;2.90;;
62863;SDS011;48954;59.950;11.014;2024-03-07T15:32:36;8.00;;;3.00;;
62863;SDS011;48954;59.950;11.014;2024-03-07T15:35:04;6.70;;;3.00;;
62863;SDS011;48954;59.950;11.014;2024-03-07T15:37:32;8.80;;;3.00;;
62863;SDS011;48954;59.950;11.014;2024-03-07T15:40:08;7.80;;;3.10;;
62863;SDS011;48954;59.950;11.014;2024-03-07T15:42:37;10.70;;;3.60;;